LOWSLOWL [4711]

Guest
Details From LOWS - Salzburg Maxglan
To LOWL - Linz Hoersching
Flight Number 4711
Tags Real Commercial Decoded
Created
Modified
Stats Distance 54 nm / 99 km
Max Altitude 0 ft / 0 m
Waypoints 2
Social Downloads 6
Likes 0
Share VATSIM

Download

Looking for another format? Having issues loading an existing format? Contact us
Advertisement - Login to hide

Notes

Decoded

Route

LOWS LOWL

ID Type Via Altitude Latitude Longitude Leg Dist Tot Dist Heading (true) Name
O LOWS APT - 0 ft / 0 m 47.80472˚ 12.99717˚ - 0 nm - -
O LOWL APT - 0 ft / 0 m 48.23240˚ 14.16739˚ 53 nm 53 nm 61° / 62° -

Altitude Profile

Advertisement - Login to hide

LOWS

Details ICAO LOWS (SZG)
Name Salzburg Maxglan
Region Austria
Timezone Europe/Vienna (UTC+1.0)
Stats Elevation 1,411 ft / 430 m (AMSL)
Location 47.793333° 13.004333°
Runways 1
Magnetic Variation 3.427° E

METAR

LOWS 131520Z 15006KT CAVOK M01/M05 Q1010 NOSIG

Decode

TAF

TAF LOWS 131115Z 1312/1412 15005KT CAVOK TX06/1412Z TNM02/1318Z BECMG 1318/1320 9999 FEW080 BKN100 TEMPO 1400/1404 -SN SCT030 BKN040 PROB30 TEMPO 1400/1406 -FZRA FEW030 BKN050 BECMG 1404/1406 27010KT TEMPO 1404/1412 28015G25KT -SHRA SCT050 BKN070

Decode

Departure Runways

ID Width Length Bearing (true) Bearing (mag) Surface Threshold Offset Overrun Length
16 148 ft / 45 m 9,024 ft / 2,751 m 157.08° 153.65° Concrete 656 ft / 200 m 0 ft / 0 m
34 148 ft / 45 m 9,024 ft / 2,751 m 337.09° 333.66° Concrete 787 ft / 240 m 0 ft / 0 m

LOWL

Details ICAO LOWL (LNZ)
Name Linz Hoersching
Region Austria
Timezone Europe/Vienna (UTC+1.0)
Stats Elevation 978 ft / 298 m (AMSL)
Location 48.233219° 14.187513°
Runways 1
Magnetic Variation 3.726° E

METAR

LOWL 131520Z 06006KT CAVOK 02/M03 Q1012 NOSIG

Decode

TAF

TAF LOWL 131115Z 1312/1412 09005KT CAVOK TX06/1410Z TNM01/1401Z BECMG 1319/1322 VRB02KT 8000 SCT060 BKN090 TEMPO 1402/1409 4500 -RA BKN060 PROB30 TEMPO 1402/1407 -FZRA TEMPO 1408/1412 28020G30KT

Decode

Destination Runways

ID Width Length Bearing (true) Bearing (mag) Surface Threshold Offset Overrun Length
09 197 ft / 60 m 9,802 ft / 2,988 m 86.49° 82.76° Asphalt 820 ft / 250 m 0 ft / 0 m
27 197 ft / 60 m 9,802 ft / 2,988 m 266.52° 262.79° Asphalt 492 ft / 150 m 0 ft / 0 m

Approach Navaids

Runway Type Ident Frequency Range Bearing (true) Bearing (mag) Slope Elevation
09 Localiser OEM 110.55 MHz 18 nm / 33 km 86.63° 82.91° - 955 ft / 291 m (AMSL)
09 Glidescope OEM 110.55 MHz 12 nm / 22 km 86.00° 82.27° 3.00° 964 ft / 294 m (AMSL)
09 DME OEM 110.55 MHz 18 nm / 33 km - - - 964 ft / 294 m (AMSL)
27 Localiser OEL 109.30 MHz 18 nm / 33 km 266.76° 263.04° - 978 ft / 298 m (AMSL)
27 Glidescope OEL 109.30 MHz 10 nm / 19 km 266.50° 262.77° 3.00° 996 ft / 304 m (AMSL)
27 DME OEL 109.30 MHz 18 nm / 33 km - - - 996 ft / 304 m (AMSL)

Popular Alternatives